sensor_id;sensor_type;location;lat;lon;timestamp;temperature;humidity
31499;DHT22;18115;52.486;13.386;2023-02-01T00:01:49;3.60;99.90
31499;DHT22;18115;52.486;13.386;2023-02-01T00:04:14;3.90;99.90
31499;DHT22;18115;52.486;13.386;2023-02-01T00:06:40;3.80;99.90
31499;DHT22;18115;52.486;13.386;2023-02-01T00:09:06;3.80;99.90
31499;DHT22;18115;52.486;13.386;2023-02-01T00:11:31;3.80;99.90
31499;DHT22;18115;52.486;13.386;2023-02-01T00:13:57;3.70;99.90
31499;DHT22;18115;52.486;13.386;2023-02-01T00:16:25;3.70;99.90
31499;DHT22;18115;52.486;13.386;2023-02-01T00:19:00;3.90;99.90
31499;DHT22;18115;52.486;13.386;2023-02-01T00:21:26;3.90;99.90
31499;DHT22;18115;52.486;13.386;2023-02-01T00:23:52;3.90;99.90
31499;DHT22;18115;52.486;13.386;2023-02-01T00:26:22;3.90;99.90
31499;DHT22;18115;52.486;13.386;2023-02-01T00:28:50;3.90;99.90
31499;DHT22;18115;52.486;13.386;2023-02-01T00:31:15;3.90;99.90
31499;DHT22;18115;52.486;13.386;2023-02-01T00:33:41;3.90;99.90
31499;DHT22;18115;52.486;13.386;2023-02-01T00:36:08;4.00;99.90
31499;DHT22;18115;52.486;13.386;2023-02-01T00:38:37;3.90;99.90
31499;DHT22;18115;52.486;13.386;2023-02-01T00:41:05;3.90;99.90
31499;DHT22;18115;52.486;13.386;2023-02-01T00:43:31;3.90;99.90
31499;DHT22;18115;52.486;13.386;2023-02-01T00:45:57;3.90;99.90
31499;DHT22;18115;52.486;13.386;2023-02-01T00:48:24;3.90;99.90
31499;DHT22;18115;52.486;13.386;2023-02-01T00:50:49;3.90;99.90
31499;DHT22;18115;52.486;13.386;2023-02-01T00:53:15;3.80;99.90
31499;DHT22;18115;52.486;13.386;2023-02-01T00:55:43;3.70;99.90
31499;DHT22;18115;52.486;13.386;2023-02-01T00:58:09;3.70;99.90
31499;DHT22;18115;52.486;13.386;2023-02-01T01:00:35;3.70;99.90
31499;DHT22;18115;52.486;13.386;2023-02-01T01:03:01;3.80;99.90
31499;DHT22;18115;52.486;13.386;2023-02-01T01:05:26;3.70;99.90
31499;DHT22;18115;52.486;13.386;2023-02-01T01:07:53;4.20;99.90
31499;DHT22;18115;52.486;13.386;2023-02-01T01:10:19;3.60;99.90
31499;DHT22;18115;52.486;13.386;2023-02-01T01:12:44;3.50;99.90
31499;DHT22;18115;52.486;13.386;2023-02-01T01:15:10;3.60;99.90
31499;DHT22;18115;52.486;13.386;2023-02-01T01:17:36;3.60;99.90
31499;DHT22;18115;52.486;13.386;2023-02-01T01:20:02;3.60;99.90
31499;DHT22;18115;52.486;13.386;2023-02-01T01:22:28;3.60;99.90
31499;DHT22;18115;52.486;13.386;2023-02-01T01:24:54;3.60;99.90
31499;DHT22;18115;52.486;13.386;2023-02-01T01:27:20;3.60;99.90
31499;DHT22;18115;52.486;13.386;2023-02-01T01:29:49;3.60;99.90
31499;DHT22;18115;52.486;13.386;2023-02-01T01:32:15;3.60;99.90
31499;DHT22;18115;52.486;13.386;2023-02-01T01:34:41;3.60;99.90
31499;DHT22;18115;52.486;13.386;2023-02-01T01:37:06;3.50;99.90
31499;DHT22;18115;52.486;13.386;2023-02-01T01:39:32;3.60;99.90
31499;DHT22;18115;52.486;13.386;2023-02-01T01:41:58;3.60;99.90
31499;DHT22;18115;52.486;13.386;2023-02-01T01:47:20;3.70;99.90
31499;DHT22;18115;52.486;13.386;2023-02-01T01:49:46;3.80;99.90
31499;DHT22;18115;52.486;13.386;2023-02-01T01:52:12;3.70;99.90
31499;DHT22;18115;52.486;13.386;2023-02-01T01:54:41;3.80;99.90
31499;DHT22;18115;52.486;13.386;2023-02-01T01:57:17;3.70;99.90
31499;DHT22;18115;52.486;13.386;2023-02-01T01:59:53;3.70;99.90
31499;DHT22;18115;52.486;13.386;2023-02-01T02:02:20;3.70;99.90
31499;DHT22;18115;52.486;13.386;2023-02-01T02:04:46;3.80;99.90
31499;DHT22;18115;52.486;13.386;2023-02-01T02:07:23;3.90;99.90
31499;DHT22;18115;52.486;13.386;2023-02-01T02:09:49;3.80;99.90
31499;DHT22;18115;52.486;13.386;2023-02-01T02:12:15;3.80;99.90
31499;DHT22;18115;52.486;13.386;2023-02-01T02:14:41;3.50;99.90
31499;DHT22;18115;52.486;13.386;2023-02-01T02:25:00;5.10;99.90
31499;DHT22;18115;52.486;13.386;2023-02-01T02:35:52;3.80;99.90
31499;DHT22;18115;52.486;13.386;2023-02-01T02:38:29;3.80;99.90
31499;DHT22;18115;52.486;13.386;2023-02-01T02:43:28;4.00;99.90
31499;DHT22;18115;52.486;13.386;2023-02-01T02:46:35;3.90;99.90
31499;DHT22;18115;52.486;13.386;2023-02-01T02:51:49;3.90;99.90
31499;DHT22;18115;52.486;13.386;2023-02-01T02:54:39;4.10;99.90
31499;DHT22;18115;52.486;13.386;2023-02-01T02:57:34;3.80;99.90
31499;DHT22;18115;52.486;13.386;2023-02-01T03:00:29;3.90;99.90
31499;DHT22;18115;52.486;13.386;2023-02-01T03:03:14;3.90;99.90
31499;DHT22;18115;52.486;13.386;2023-02-01T03:05:59;3.90;99.90
31499;DHT22;18115;52.486;13.386;2023-02-01T03:08:29;6.30;99.90
31499;DHT22;18115;52.486;13.386;2023-02-01T03:11:08;4.00;99.90
31499;DHT22;18115;52.486;13.386;2023-02-01T03:13:54;4.00;99.90
31499;DHT22;18115;52.486;13.386;2023-02-01T03:18:57;4.10;99.90
31499;DHT22;18115;52.486;13.386;2023-02-01T03:21:41;4.10;99.90
31499;DHT22;18115;52.486;13.386;2023-02-01T03:24:18;4.00;99.90
31499;DHT22;18115;52.486;13.386;2023-02-01T03:26:51;4.00;99.90
31499;DHT22;18115;52.486;13.386;2023-02-01T03:29:23;4.00;99.90
31499;DHT22;18115;52.486;13.386;2023-02-01T03:31:50;4.00;99.90
31499;DHT22;18115;52.486;13.386;2023-02-01T03:34:17;4.20;99.90
31499;DHT22;18115;52.486;13.386;2023-02-01T03:36:57;4.00;99.90
31499;DHT22;18115;52.486;13.386;2023-02-01T03:42:04;4.10;99.90
31499;DHT22;18115;52.486;13.386;2023-02-01T03:44:34;4.00;99.90
31499;DHT22;18115;52.486;13.386;2023-02-01T03:47:20;4.00;99.90
31499;DHT22;18115;52.486;13.386;2023-02-01T03:49:50;4.00;99.90
31499;DHT22;18115;52.486;13.386;2023-02-01T03:52:25;4.10;99.90
31499;DHT22;18115;52.486;13.386;2023-02-01T03:54:53;4.10;99.90
31499;DHT22;18115;52.486;13.386;2023-02-01T03:57:23;4.10;99.90
31499;DHT22;18115;52.486;13.386;2023-02-01T03:59:50;4.30;99.90
31499;DHT22;18115;52.486;13.386;2023-02-01T04:02:16;4.20;99.90
31499;DHT22;18115;52.486;13.386;2023-02-01T04:04:42;4.30;99.90
31499;DHT22;18115;52.486;13.386;2023-02-01T04:07:07;4.30;99.90
31499;DHT22;18115;52.486;13.386;2023-02-01T04:09:33;4.20;99.90
31499;DHT22;18115;52.486;13.386;2023-02-01T04:11:58;4.70;99.90
31499;DHT22;18115;52.486;13.386;2023-02-01T04:14:24;4.30;99.90
31499;DHT22;18115;52.486;13.386;2023-02-01T04:16:50;4.30;99.90
31499;DHT22;18115;52.486;13.386;2023-02-01T04:19:15;4.30;99.90
31499;DHT22;18115;52.486;13.386;2023-02-01T04:21:41;4.30;99.90
31499;DHT22;18115;52.486;13.386;2023-02-01T04:24:07;4.40;99.90
31499;DHT22;18115;52.486;13.386;2023-02-01T04:26:33;4.40;99.90
31499;DHT22;18115;52.486;13.386;2023-02-01T04:28:59;4.40;99.90
31499;DHT22;18115;52.486;13.386;2023-02-01T04:31:24;4.40;99.90
31499;DHT22;18115;52.486;13.386;2023-02-01T04:33:54;4.60;99.90
31499;DHT22;18115;52.486;13.386;2023-02-01T04:36:21;4.40;99.90
31499;DHT22;18115;52.486;13.386;2023-02-01T04:38:48;4.50;99.90
31499;DHT22;18115;52.486;13.386;2023-02-01T04:41:14;4.50;99.90
31499;DHT22;18115;52.486;13.386;2023-02-01T04:43:41;4.40;99.90
31499;DHT22;18115;52.486;13.386;2023-02-01T04:46:06;4.60;99.90
31499;DHT22;18115;52.486;13.386;2023-02-01T04:48:32;4.60;99.90
31499;DHT22;18115;52.486;13.386;2023-02-01T04:50:58;4.60;99.90
31499;DHT22;18115;52.486;13.386;2023-02-01T04:53:23;4.60;99.90
31499;DHT22;18115;52.486;13.386;2023-02-01T04:55:49;4.60;99.90
31499;DHT22;18115;52.486;13.386;2023-02-01T04:58:15;4.60;99.90
31499;DHT22;18115;52.486;13.386;2023-02-01T05:00:41;4.60;99.90
31499;DHT22;18115;52.486;13.386;2023-02-01T05:03:07;4.60;99.90
31499;DHT22;18115;52.486;13.386;2023-02-01T05:05:32;4.60;99.90
31499;DHT22;18115;52.486;13.386;2023-02-01T05:07:58;4.50;99.90
31499;DHT22;18115;52.486;13.386;2023-02-01T05:10:24;4.90;99.90
31499;DHT22;18115;52.486;13.386;2023-02-01T05:12:49;4.60;99.90
31499;DHT22;18115;52.486;13.386;2023-02-01T05:15:33;4.70;99.90
31499;DHT22;18115;52.486;13.386;2023-02-01T05:17:59;5.50;99.90
31499;DHT22;18115;52.486;13.386;2023-02-01T05:20:25;4.70;99.90
31499;DHT22;18115;52.486;13.386;2023-02-01T05:22:50;4.80;99.90
31499;DHT22;18115;52.486;13.386;2023-02-01T05:25:16;4.70;99.90
31499;DHT22;18115;52.486;13.386;2023-02-01T05:27:42;5.30;99.90
31499;DHT22;18115;52.486;13.386;2023-02-01T05:30:08;4.70;99.90
31499;DHT22;18115;52.486;13.386;2023-02-01T05:32:34;4.70;99.90
31499;DHT22;18115;52.486;13.386;2023-02-01T05:35:00;4.70;99.90
31499;DHT22;18115;52.486;13.386;2023-02-01T05:37:26;4.70;99.90
31499;DHT22;18115;52.486;13.386;2023-02-01T05:39:51;4.80;99.90
31499;DHT22;18115;52.486;13.386;2023-02-01T05:42:17;4.70;99.90
31499;DHT22;18115;52.486;13.386;2023-02-01T05:44:43;4.80;99.90
31499;DHT22;18115;52.486;13.386;2023-02-01T05:47:09;4.70;99.90
31499;DHT22;18115;52.486;13.386;2023-02-01T05:49:35;4.80;99.90
31499;DHT22;18115;52.486;13.386;2023-02-01T05:52:00;4.90;99.90
31499;DHT22;18115;52.486;13.386;2023-02-01T05:54:26;5.00;99.90
31499;DHT22;18115;52.486;13.386;2023-02-01T05:56:52;4.70;99.90
31499;DHT22;18115;52.486;13.386;2023-02-01T05:59:17;4.70;99.90
31499;DHT22;18115;52.486;13.386;2023-02-01T06:01:43;4.80;99.90
31499;DHT22;18115;52.486;13.386;2023-02-01T06:04:08;4.80;99.90
31499;DHT22;18115;52.486;13.386;2023-02-01T06:06:34;4.80;99.90
31499;DHT22;18115;52.486;13.386;2023-02-01T06:09:02;4.90;99.90
31499;DHT22;18115;52.486;13.386;2023-02-01T06:11:28;4.80;99.90
31499;DHT22;18115;52.486;13.386;2023-02-01T06:13:53;4.80;99.90
31499;DHT22;18115;52.486;13.386;2023-02-01T06:16:21;4.70;99.90
31499;DHT22;18115;52.486;13.386;2023-02-01T06:18:47;4.70;99.90
31499;DHT22;18115;52.486;13.386;2023-02-01T06:21:12;5.60;99.90
31499;DHT22;18115;52.486;13.386;2023-02-01T06:23:40;4.60;99.90
31499;DHT22;18115;52.486;13.386;2023-02-01T06:26:06;5.10;99.90
31499;DHT22;18115;52.486;13.386;2023-02-01T06:28:35;5.30;99.90
31499;DHT22;18115;52.486;13.386;2023-02-01T06:31:05;4.40;99.90
31499;DHT22;18115;52.486;13.386;2023-02-01T06:33:32;4.40;99.90
31499;DHT22;18115;52.486;13.386;2023-02-01T06:36:00;4.50;99.90
31499;DHT22;18115;52.486;13.386;2023-02-01T06:38:26;4.90;99.90
31499;DHT22;18115;52.486;13.386;2023-02-01T06:40:53;4.50;99.90
31499;DHT22;18115;52.486;13.386;2023-02-01T06:43:20;4.40;99.90
31499;DHT22;18115;52.486;13.386;2023-02-01T06:45:46;4.40;99.90
31499;DHT22;18115;52.486;13.386;2023-02-01T06:48:11;4.90;99.90
31499;DHT22;18115;52.486;13.386;2023-02-01T06:50:37;4.40;99.90
31499;DHT22;18115;52.486;13.386;2023-02-01T06:53:03;4.40;99.90
31499;DHT22;18115;52.486;13.386;2023-02-01T06:55:28;4.40;99.90
31499;DHT22;18115;52.486;13.386;2023-02-01T06:57:55;4.40;99.90
31499;DHT22;18115;52.486;13.386;2023-02-01T07:00:22;4.40;99.90
31499;DHT22;18115;52.486;13.386;2023-02-01T07:02:48;4.30;99.90
31499;DHT22;18115;52.486;13.386;2023-02-01T07:05:14;4.40;99.90
31499;DHT22;18115;52.486;13.386;2023-02-01T07:07:40;4.40;99.90
31499;DHT22;18115;52.486;13.386;2023-02-01T07:10:06;4.40;99.90
31499;DHT22;18115;52.486;13.386;2023-02-01T07:12:32;4.40;99.90
31499;DHT22;18115;52.486;13.386;2023-02-01T07:14:57;4.50;99.90
31499;DHT22;18115;52.486;13.386;2023-02-01T07:17:23;4.50;99.90
31499;DHT22;18115;52.486;13.386;2023-02-01T07:19:49;4.40;99.90
31499;DHT22;18115;52.486;13.386;2023-02-01T07:22:18;4.50;99.90
31499;DHT22;18115;52.486;13.386;2023-02-01T07:24:43;4.50;99.90
31499;DHT22;18115;52.486;13.386;2023-02-01T07:27:09;4.40;99.90
31499;DHT22;18115;52.486;13.386;2023-02-01T07:29:34;4.50;99.90
31499;DHT22;18115;52.486;13.386;2023-02-01T07:32:00;4.40;99.90
31499;DHT22;18115;52.486;13.386;2023-02-01T07:34:28;4.50;99.90
31499;DHT22;18115;52.486;13.386;2023-02-01T07:36:53;4.50;99.90
31499;DHT22;18115;52.486;13.386;2023-02-01T07:39:19;4.90;99.90
31499;DHT22;18115;52.486;13.386;2023-02-01T07:41:45;4.60;99.90
31499;DHT22;18115;52.486;13.386;2023-02-01T07:44:11;4.60;99.90
31499;DHT22;18115;52.486;13.386;2023-02-01T07:46:36;4.60;99.90
31499;DHT22;18115;52.486;13.386;2023-02-01T07:49:04;4.40;99.90
31499;DHT22;18115;52.486;13.386;2023-02-01T07:51:29;4.40;99.90
31499;DHT22;18115;52.486;13.386;2023-02-01T07:53:55;4.20;99.90
31499;DHT22;18115;52.486;13.386;2023-02-01T07:56:20;4.10;99.90
31499;DHT22;18115;52.486;13.386;2023-02-01T07:58:53;4.10;99.90
31499;DHT22;18115;52.486;13.386;2023-02-01T08:01:25;4.00;99.90
31499;DHT22;18115;52.486;13.386;2023-02-01T08:04:01;3.90;99.90
31499;DHT22;18115;52.486;13.386;2023-02-01T08:06:29;3.90;99.90
31499;DHT22;18115;52.486;13.386;2023-02-01T08:08:56;3.60;99.90
31499;DHT22;18115;52.486;13.386;2023-02-01T08:11:23;3.60;99.90
31499;DHT22;18115;52.486;13.386;2023-02-01T08:13:50;3.50;99.90
31499;DHT22;18115;52.486;13.386;2023-02-01T08:16:17;3.50;99.90
31499;DHT22;18115;52.486;13.386;2023-02-01T08:18:43;3.40;99.90
31499;DHT22;18115;52.486;13.386;2023-02-01T08:23:39;3.40;99.90
31499;DHT22;18115;52.486;13.386;2023-02-01T08:28:32;3.30;99.90
31499;DHT22;18115;52.486;13.386;2023-02-01T08:30:58;3.30;99.90
31499;DHT22;18115;52.486;13.386;2023-02-01T08:33:24;3.30;99.90
31499;DHT22;18115;52.486;13.386;2023-02-01T08:35:50;3.30;99.90
31499;DHT22;18115;52.486;13.386;2023-02-01T08:38:16;3.30;99.90
31499;DHT22;18115;52.486;13.386;2023-02-01T08:40:41;3.30;99.90
31499;DHT22;18115;52.486;13.386;2023-02-01T08:43:07;4.10;99.90
31499;DHT22;18115;52.486;13.386;2023-02-01T08:45:33;3.40;99.90
31499;DHT22;18115;52.486;13.386;2023-02-01T08:47:59;3.90;99.90
31499;DHT22;18115;52.486;13.386;2023-02-01T08:50:24;3.50;99.90
31499;DHT22;18115;52.486;13.386;2023-02-01T08:52:51;3.40;99.90
31499;DHT22;18115;52.486;13.386;2023-02-01T08:55:16;3.50;99.90
31499;DHT22;18115;52.486;13.386;2023-02-01T08:57:43;3.50;99.90
31499;DHT22;18115;52.486;13.386;2023-02-01T09:00:12;3.90;99.90
31499;DHT22;18115;52.486;13.386;2023-02-01T09:02:38;3.40;99.90
31499;DHT22;18115;52.486;13.386;2023-02-01T09:05:04;3.40;99.90
31499;DHT22;18115;52.486;13.386;2023-02-01T09:07:31;3.40;99.90
31499;DHT22;18115;52.486;13.386;2023-02-01T09:09:57;3.40;99.90
31499;DHT22;18115;52.486;13.386;2023-02-01T09:12:29;3.40;99.90
31499;DHT22;18115;52.486;13.386;2023-02-01T09:14:58;3.40;99.90
31499;DHT22;18115;52.486;13.386;2023-02-01T09:17:26;3.40;99.90
31499;DHT22;18115;52.486;13.386;2023-02-01T09:19:52;3.50;99.90
31499;DHT22;18115;52.486;13.386;2023-02-01T09:22:17;3.70;99.90
31499;DHT22;18115;52.486;13.386;2023-02-01T09:24:43;3.50;99.90
31499;DHT22;18115;52.486;13.386;2023-02-01T09:27:09;3.60;99.90
31499;DHT22;18115;52.486;13.386;2023-02-01T09:29:35;3.70;99.90
31499;DHT22;18115;52.486;13.386;2023-02-01T09:32:00;3.60;99.90
31499;DHT22;18115;52.486;13.386;2023-02-01T09:34:26;3.70;99.90
31499;DHT22;18115;52.486;13.386;2023-02-01T09:36:55;3.60;99.90
31499;DHT22;18115;52.486;13.386;2023-02-01T09:39:20;3.70;99.90
31499;DHT22;18115;52.486;13.386;2023-02-01T09:47:16;3.70;99.90
31499;DHT22;18115;52.486;13.386;2023-02-01T09:50:09;3.70;99.90
31499;DHT22;18115;52.486;13.386;2023-02-01T09:52:57;3.70;99.90
31499;DHT22;18115;52.486;13.386;2023-02-01T09:55:51;3.80;99.90
31499;DHT22;18115;52.486;13.386;2023-02-01T09:58:39;3.70;99.90
31499;DHT22;18115;52.486;13.386;2023-02-01T10:01:23;3.70;99.90
31499;DHT22;18115;52.486;13.386;2023-02-01T10:03:50;3.80;99.90
31499;DHT22;18115;52.486;13.386;2023-02-01T10:06:31;3.80;99.90
31499;DHT22;18115;52.486;13.386;2023-02-01T10:09:07;3.80;99.90
31499;DHT22;18115;52.486;13.386;2023-02-01T10:17:24;3.80;99.90
31499;DHT22;18115;52.486;13.386;2023-02-01T10:25:56;3.90;99.90
31499;DHT22;18115;52.486;13.386;2023-02-01T10:28:25;3.90;99.90
31499;DHT22;18115;52.486;13.386;2023-02-01T10:30:54;3.90;99.90
31499;DHT22;18115;52.486;13.386;2023-02-01T10:33:30;3.90;99.90
31499;DHT22;18115;52.486;13.386;2023-02-01T10:36:21;4.00;99.90
31499;DHT22;18115;52.486;13.386;2023-02-01T10:38:48;4.10;99.90
31499;DHT22;18115;52.486;13.386;2023-02-01T10:41:15;4.30;99.90
31499;DHT22;18115;52.486;13.386;2023-02-01T10:43:43;4.10;99.90
31499;DHT22;18115;52.486;13.386;2023-02-01T10:46:11;4.10;99.90
31499;DHT22;18115;52.486;13.386;2023-02-01T10:48:37;4.20;99.90
31499;DHT22;18115;52.486;13.386;2023-02-01T10:52:14;4.10;99.90
31499;DHT22;18115;52.486;13.386;2023-02-01T10:54:33;3.90;99.90
31499;DHT22;18115;52.486;13.386;2023-02-01T10:56:59;3.90;99.90
31499;DHT22;18115;52.486;13.386;2023-02-01T10:59:27;3.80;99.90
31499;DHT22;18115;52.486;13.386;2023-02-01T11:02:02;3.70;99.90
31499;DHT22;18115;52.486;13.386;2023-02-01T11:04:34;3.70;99.90
31499;DHT22;18115;52.486;13.386;2023-02-01T11:07:07;3.70;99.90
31499;DHT22;18115;52.486;13.386;2023-02-01T11:09:39;3.80;99.90
31499;DHT22;18115;52.486;13.386;2023-02-01T11:12:10;3.90;99.90
31499;DHT22;18115;52.486;13.386;2023-02-01T11:14:47;3.90;99.90
31499;DHT22;18115;52.486;13.386;2023-02-01T11:17:49;4.10;99.90
31499;DHT22;18115;52.486;13.386;2023-02-01T11:20:46;4.10;99.90
31499;DHT22;18115;52.486;13.386;2023-02-01T11:23:14;4.20;99.90
31499;DHT22;18115;52.486;13.386;2023-02-01T11:25:53;4.30;99.90
31499;DHT22;18115;52.486;13.386;2023-02-01T11:28:23;4.40;99.90
31499;DHT22;18115;52.486;13.386;2023-02-01T11:30:51;4.40;99.90
31499;DHT22;18115;52.486;13.386;2023-02-01T11:33:20;4.60;99.90
31499;DHT22;18115;52.486;13.386;2023-02-01T11:35:47;4.70;99.90
31499;DHT22;18115;52.486;13.386;2023-02-01T11:38:33;4.90;99.90
31499;DHT22;18115;52.486;13.386;2023-02-01T11:43:53;5.40;99.90
31499;DHT22;18115;52.486;13.386;2023-02-01T11:46:23;5.30;99.90
31499;DHT22;18115;52.486;13.386;2023-02-01T11:48:52;5.30;99.90
31499;DHT22;18115;52.486;13.386;2023-02-01T12:06:23;5.90;99.90
31499;DHT22;18115;52.486;13.386;2023-02-01T12:23:06;5.90;99.90
31499;DHT22;18115;52.486;13.386;2023-02-01T12:37:36;5.60;99.90
31499;DHT22;18115;52.486;13.386;2023-02-01T12:43:12;5.50;99.90
31499;DHT22;18115;52.486;13.386;2023-02-01T12:45:53;5.60;99.90
31499;DHT22;18115;52.486;13.386;2023-02-01T12:48:54;5.60;99.90
31499;DHT22;18115;52.486;13.386;2023-02-01T12:51:28;5.70;99.90
31499;DHT22;18115;52.486;13.386;2023-02-01T12:54:10;5.80;99.90
31499;DHT22;18115;52.486;13.386;2023-02-01T12:59:24;5.70;99.90
31499;DHT22;18115;52.486;13.386;2023-02-01T13:02:04;5.70;99.90
31499;DHT22;18115;52.486;13.386;2023-02-01T13:04:42;5.70;99.90
31499;DHT22;18115;52.486;13.386;2023-02-01T13:07:16;5.80;99.90
31499;DHT22;18115;52.486;13.386;2023-02-01T13:09:49;5.90;99.90
31499;DHT22;18115;52.486;13.386;2023-02-01T13:12:32;5.90;99.90
31499;DHT22;18115;52.486;13.386;2023-02-01T13:15:19;5.90;99.90
31499;DHT22;18115;52.486;13.386;2023-02-01T13:17:47;5.80;99.90
31499;DHT22;18115;52.486;13.386;2023-02-01T13:20:26;5.70;99.90
31499;DHT22;18115;52.486;13.386;2023-02-01T13:23:01;5.80;99.90
31499;DHT22;18115;52.486;13.386;2023-02-01T13:25:52;5.80;99.90
31499;DHT22;18115;52.486;13.386;2023-02-01T13:28:32;5.70;99.90
31499;DHT22;18115;52.486;13.386;2023-02-01T13:33:51;5.70;99.90
31499;DHT22;18115;52.486;13.386;2023-02-01T13:42:21;5.80;99.90
31499;DHT22;18115;52.486;13.386;2023-02-01T13:44:56;5.90;99.90
31499;DHT22;18115;52.486;13.386;2023-02-01T13:47:34;5.90;99.90
31499;DHT22;18115;52.486;13.386;2023-02-01T13:52:45;5.90;99.90
31499;DHT22;18115;52.486;13.386;2023-02-01T13:57:46;5.90;99.90
31499;DHT22;18115;52.486;13.386;2023-02-01T14:00:45;5.80;99.90
31499;DHT22;18115;52.486;13.386;2023-02-01T14:03:13;5.90;99.90
31499;DHT22;18115;52.486;13.386;2023-02-01T14:08:12;5.80;99.90
31499;DHT22;18115;52.486;13.386;2023-02-01T14:10:58;5.90;99.90
31499;DHT22;18115;52.486;13.386;2023-02-01T14:13:37;5.80;99.90
31499;DHT22;18115;52.486;13.386;2023-02-01T14:23:42;5.40;99.90
31499;DHT22;18115;52.486;13.386;2023-02-01T14:44:42;5.40;99.90
31499;DHT22;18115;52.486;13.386;2023-02-01T14:52:20;5.40;99.90
31499;DHT22;18115;52.486;13.386;2023-02-01T14:54:53;5.40;99.90
31499;DHT22;18115;52.486;13.386;2023-02-01T14:57:21;5.40;99.90
31499;DHT22;18115;52.486;13.386;2023-02-01T14:59:49;5.50;99.90
31499;DHT22;18115;52.486;13.386;2023-02-01T15:02:26;5.50;99.90
31499;DHT22;18115;52.486;13.386;2023-02-01T15:04:56;5.50;99.90
31499;DHT22;18115;52.486;13.386;2023-02-01T15:07:24;5.60;99.90
31499;DHT22;18115;52.486;13.386;2023-02-01T15:09:51;6.20;99.90
31499;DHT22;18115;52.486;13.386;2023-02-01T15:12:22;5.50;99.90
31499;DHT22;18115;52.486;13.386;2023-02-01T15:15:13;5.40;99.90
31499;DHT22;18115;52.486;13.386;2023-02-01T15:17:40;5.10;99.90
31499;DHT22;18115;52.486;13.386;2023-02-01T15:20:13;4.90;99.90
31499;DHT22;18115;52.486;13.386;2023-02-01T15:22:39;4.70;99.90
31499;DHT22;18115;52.486;13.386;2023-02-01T15:25:17;4.60;99.90
31499;DHT22;18115;52.486;13.386;2023-02-01T15:27:43;4.50;99.90
31499;DHT22;18115;52.486;13.386;2023-02-01T15:30:18;4.30;99.90
31499;DHT22;18115;52.486;13.386;2023-02-01T15:32:44;4.20;99.90
31499;DHT22;18115;52.486;13.386;2023-02-01T15:35:39;4.00;99.90
31499;DHT22;18115;52.486;13.386;2023-02-01T15:41:18;3.60;99.90
31499;DHT22;18115;52.486;13.386;2023-02-01T15:46:16;3.40;99.90
31499;DHT22;18115;52.486;13.386;2023-02-01T15:48:53;3.30;99.90
31499;DHT22;18115;52.486;13.386;2023-02-01T15:51:22;3.20;99.90
31499;DHT22;18115;52.486;13.386;2023-02-01T15:53:51;3.20;99.90
31499;DHT22;18115;52.486;13.386;2023-02-01T15:56:23;3.20;99.90
31499;DHT22;18115;52.486;13.386;2023-02-01T15:58:56;2.90;99.90
31499;DHT22;18115;52.486;13.386;2023-02-01T16:01:23;2.90;99.90
31499;DHT22;18115;52.486;13.386;2023-02-01T16:03:50;2.80;99.90
31499;DHT22;18115;52.486;13.386;2023-02-01T16:06:29;2.70;99.90
31499;DHT22;18115;52.486;13.386;2023-02-01T16:09:16;2.60;99.90
31499;DHT22;18115;52.486;13.386;2023-02-01T16:11:59;2.60;99.90
31499;DHT22;18115;52.486;13.386;2023-02-01T16:14:25;2.60;99.90
31499;DHT22;18115;52.486;13.386;2023-02-01T16:16:53;2.30;99.90
31499;DHT22;18115;52.486;13.386;2023-02-01T16:19:19;2.10;99.90
31499;DHT22;18115;52.486;13.386;2023-02-01T16:21:45;1.90;99.90
31499;DHT22;18115;52.486;13.386;2023-02-01T16:24:11;1.80;99.90
31499;DHT22;18115;52.486;13.386;2023-02-01T16:26:37;2.00;99.90
31499;DHT22;18115;52.486;13.386;2023-02-01T16:29:04;1.80;99.90
31499;DHT22;18115;52.486;13.386;2023-02-01T16:31:34;1.80;99.90
31499;DHT22;18115;52.486;13.386;2023-02-01T16:34:00;1.90;99.90
31499;DHT22;18115;52.486;13.386;2023-02-01T16:36:26;1.90;99.90
31499;DHT22;18115;52.486;13.386;2023-02-01T16:38:54;2.00;99.90
31499;DHT22;18115;52.486;13.386;2023-02-01T16:41:21;2.00;99.90
31499;DHT22;18115;52.486;13.386;2023-02-01T16:43:52;2.10;99.90
31499;DHT22;18115;52.486;13.386;2023-02-01T16:46:20;2.10;99.90
31499;DHT22;18115;52.486;13.386;2023-02-01T16:48:54;2.10;99.90
31499;DHT22;18115;52.486;13.386;2023-02-01T16:51:20;2.20;99.90
31499;DHT22;18115;52.486;13.386;2023-02-01T16:53:47;2.20;99.90
31499;DHT22;18115;52.486;13.386;2023-02-01T16:56:38;2.20;99.90
31499;DHT22;18115;52.486;13.386;2023-02-01T16:59:04;2.20;99.90
31499;DHT22;18115;52.486;13.386;2023-02-01T17:01:30;2.30;99.90
31499;DHT22;18115;52.486;13.386;2023-02-01T17:03:56;2.30;99.90
31499;DHT22;18115;52.486;13.386;2023-02-01T17:06:24;2.70;99.90
31499;DHT22;18115;52.486;13.386;2023-02-01T17:08:54;2.50;99.90
31499;DHT22;18115;52.486;13.386;2023-02-01T17:11:20;2.30;99.90
31499;DHT22;18115;52.486;13.386;2023-02-01T17:13:46;2.30;99.90
31499;DHT22;18115;52.486;13.386;2023-02-01T17:16:25;2.30;99.90
31499;DHT22;18115;52.486;13.386;2023-02-01T17:21:20;2.30;99.90
31499;DHT22;18115;52.486;13.386;2023-02-01T17:23:45;2.30;99.90
31499;DHT22;18115;52.486;13.386;2023-02-01T17:26:11;2.40;99.90
31499;DHT22;18115;52.486;13.386;2023-02-01T17:28:37;3.60;99.90
31499;DHT22;18115;52.486;13.386;2023-02-01T17:31:03;2.40;99.90
31499;DHT22;18115;52.486;13.386;2023-02-01T17:33:33;2.50;99.90
31499;DHT22;18115;52.486;13.386;2023-02-01T17:36:00;2.60;99.90
31499;DHT22;18115;52.486;13.386;2023-02-01T17:38:26;2.60;99.90
31499;DHT22;18115;52.486;13.386;2023-02-01T17:40:52;2.70;99.90
31499;DHT22;18115;52.486;13.386;2023-02-01T17:43:21;2.70;99.90
31499;DHT22;18115;52.486;13.386;2023-02-01T17:46:09;2.70;99.90
31499;DHT22;18115;52.486;13.386;2023-02-01T17:48:36;2.80;99.90
31499;DHT22;18115;52.486;13.386;2023-02-01T17:51:02;2.80;99.90
31499;DHT22;18115;52.486;13.386;2023-02-01T17:53:29;2.90;99.90
31499;DHT22;18115;52.486;13.386;2023-02-01T17:55:55;2.90;99.90
31499;DHT22;18115;52.486;13.386;2023-02-01T17:58:23;3.00;99.90
31499;DHT22;18115;52.486;13.386;2023-02-01T18:00:49;2.90;99.90
31499;DHT22;18115;52.486;13.386;2023-02-01T18:03:23;2.90;99.90
31499;DHT22;18115;52.486;13.386;2023-02-01T18:05:50;2.90;99.90
31499;DHT22;18115;52.486;13.386;2023-02-01T18:08:18;2.90;99.90
31499;DHT22;18115;52.486;13.386;2023-02-01T18:10:50;3.80;99.90
31499;DHT22;18115;52.486;13.386;2023-02-01T18:13:16;3.00;99.90
31499;DHT22;18115;52.486;13.386;2023-02-01T18:15:42;3.00;99.90
31499;DHT22;18115;52.486;13.386;2023-02-01T18:18:08;3.00;99.90
31499;DHT22;18115;52.486;13.386;2023-02-01T18:20:33;3.10;99.90
31499;DHT22;18115;52.486;13.386;2023-02-01T18:23:02;3.00;99.90
31499;DHT22;18115;52.486;13.386;2023-02-01T18:25:29;3.10;99.90